Time;durP1;ratioP1;P1;durP2;ratioP2;P2;SDS_P1;SDS_P2;PMS_P1;PMS_P2;Temp;Humidity;BMP_temperature;BMP_pressure;BME280_temperature;BME280_humidity;BME280_pressure;Samples;Min_cycle;Max_cycle;Signal;HPM_P1;HPM_P2
2023/10/11 00:00:40;;;;;;;0.00;0.00;;;13.10;99.90;;;;;;5090803;28;20195;-60
2023/10/11 00:05:50;;;;;;;0.10;0.10;;;13.10;99.90;;;;;;5090855;28;20250;-59
2023/10/11 00:08:17;;;;;;;0.00;0.00;;;13.10;99.90;;;;;;5090611;28;20227;-59
2023/10/11 00:10:53;;;;;;;0.00;0.00;;;13.10;99.90;;;;;;5090944;28;20275;-59
2023/10/11 00:13:20;;;;;;;0.43;0.28;;;13.10;99.90;;;;;;5075301;28;20191;-59
2023/10/11 00:15:49;;;;;;;0.08;0.08;;;13.10;99.90;;;;;;5090932;28;20321;-59
2023/10/11 00:18:17;;;;;;;0.00;0.00;;;13.10;99.90;;;;;;5090976;28;20180;-60
2023/10/11 00:23:09;;;;;;;0.47;0.47;;;13.10;99.90;;;;;;5090909;28;20180;-60
2023/10/11 00:25:34;;;;;;;0.00;0.00;;;13.10;99.90;;;;;;5089386;28;20248;-59
2023/10/11 00:28:00;;;;;;;0.00;0.00;;;13.10;99.90;;;;;;5090919;28;20550;-59
2023/10/11 00:30:29;;;;;;;0.00;0.00;;;13.10;99.90;;;;;;5090914;28;20180;-60
2023/10/11 00:32:55;;;;;;;0.00;0.00;;;13.10;99.90;;;;;;5090617;28;20191;-59
2023/10/11 00:35:24;;;;;;;0.00;0.00;;;13.10;99.90;;;;;;5074704;28;20180;-59
2023/10/11 00:37:51;;;;;;;0.00;0.00;;;13.10;99.90;;;;;;5090641;28;20184;-59
2023/10/11 00:40:31;;;;;;;0.00;0.00;;;13.10;99.90;;;;;;5090535;28;20776;-59
2023/10/11 00:42:58;;;;;;;0.00;0.00;;;13.10;99.90;;;;;;5090382;28;20184;-59
2023/10/11 00:45:30;;;;;;;0.00;0.00;;;13.10;99.90;;;;;;5090585;28;20228;-59
2023/10/11 00:47:58;;;;;;;0.00;0.00;;;13.10;99.90;;;;;;5090659;28;20685;-59
2023/10/11 00:50:24;;;;;;;0.15;0.15;;;13.10;99.90;;;;;;5090551;28;20238;-61
2023/10/11 00:52:50;;;;;;;0.20;0.20;;;13.10;99.90;;;;;;5090738;28;20180;-60
2023/10/11 00:55:23;;;;;;;0.00;0.00;;;13.10;99.90;;;;;;5089795;28;20177;-60
2023/10/11 00:57:49;;;;;;;0.05;0.05;;;13.10;99.90;;;;;;5090588;28;20211;-59
2023/10/11 01:00:17;;;;;;;0.00;0.00;;;13.10;99.90;;;;;;5090001;28;20263;-59
2023/10/11 01:02:45;;;;;;;0.13;0.13;;;13.10;99.90;;;;;;5092991;28;20184;-59
2023/10/11 01:05:12;;;;;;;0.00;0.00;;;13.10;99.90;;;;;;5093970;28;20172;-58
2023/10/11 01:07:38;;;;;;;0.00;0.00;;;13.10;99.90;;;;;;5093875;28;20180;-59
2023/10/11 01:10:06;;;;;;;0.00;0.00;;;13.10;99.90;;;;;;5093315;28;20269;-59
2023/10/11 01:12:32;;;;;;;0.00;0.00;;;13.10;99.90;;;;;;5093670;28;20236;-60
2023/10/11 01:14:58;;;;;;;0.10;0.10;;;13.00;99.90;;;;;;5094012;28;20268;-59
2023/10/11 01:17:31;;;;;;;0.00;0.00;;;13.00;99.90;;;;;;5092783;28;20199;-60
2023/10/11 01:19:59;;;;;;;0.00;0.00;;;13.00;99.90;;;;;;5092758;28;20250;-60
2023/10/11 01:22:27;;;;;;;0.00;0.00;;;13.00;99.90;;;;;;5094014;28;20222;-60
2023/10/11 01:24:54;;;;;;;0.10;0.10;;;12.90;99.90;;;;;;5094048;28;20675;-60
2023/10/11 01:27:22;;;;;;;0.00;0.00;;;12.90;99.90;;;;;;5093683;28;20687;-59
2023/10/11 01:29:47;;;;;;;0.73;0.73;;;12.90;99.90;;;;;;5080323;28;20172;-60
2023/10/11 01:32:13;;;;;;;0.00;0.00;;;12.90;99.90;;;;;;5093861;28;20191;-60
2023/10/11 01:34:38;;;;;;;0.00;0.00;;;12.90;99.90;;;;;;5093337;28;20186;-60
2023/10/11 01:37:06;;;;;;;0.00;0.00;;;12.90;99.90;;;;;;5093661;28;20187;-60
2023/10/11 01:39:32;;;;;;;0.00;0.00;;;12.90;99.90;;;;;;5084627;28;20240;-60
2023/10/11 01:41:58;;;;;;;0.00;0.00;;;12.90;99.90;;;;;;5093193;28;20164;-60
2023/10/11 01:44:25;;;;;;;0.00;0.00;;;12.90;99.90;;;;;;5093419;28;20198;-60
2023/10/11 01:46:50;;;;;;;0.00;0.00;;;13.00;99.90;;;;;;5093005;28;20219;-60
2023/10/11 01:49:16;;;;;;;0.00;0.00;;;12.90;99.90;;;;;;5093155;28;20542;-60
2023/10/11 01:51:47;;;;;;;0.00;0.00;;;12.90;99.90;;;;;;5093357;28;20188;-60
2023/10/11 01:54:15;;;;;;;0.00;0.00;;;12.90;99.90;;;;;;5093321;28;20187;-60
2023/10/11 01:56:45;;;;;;;0.10;0.10;;;12.90;99.90;;;;;;5092868;28;20183;-60
2023/10/11 01:59:12;;;;;;;0.00;0.00;;;12.90;99.90;;;;;;5092992;28;20891;-60
2023/10/11 02:01:40;;;;;;;0.00;0.00;;;12.90;99.90;;;;;;5092754;28;20186;-60
2023/10/11 02:04:16;;;;;;;0.00;0.00;;;12.90;99.90;;;;;;5093214;28;20204;-60
2023/10/11 02:06:42;;;;;;;0.00;0.00;;;12.80;99.90;;;;;;5093004;28;20215;-59
2023/10/11 02:09:09;;;;;;;0.00;0.00;;;12.80;99.90;;;;;;5092831;28;20198;-60
2023/10/11 02:11:41;;;;;;;0.00;0.00;;;12.80;99.90;;;;;;5089814;28;20255;-59
2023/10/11 02:14:07;;;;;;;0.00;0.00;;;12.80;99.90;;;;;;5091654;28;20180;-59
2023/10/11 02:16:33;;;;;;;0.05;0.05;;;12.80;99.90;;;;;;5092885;28;20639;-59
2023/10/11 02:18:59;;;;;;;0.00;0.00;;;12.80;99.90;;;;;;5092772;28;20176;-61
2023/10/11 02:21:25;;;;;;;0.00;0.00;;;12.80;99.90;;;;;;5092767;28;20203;-61
2023/10/11 02:23:51;;;;;;;0.00;0.00;;;12.80;99.90;;;;;;5092582;28;20655;-59
2023/10/11 02:26:17;;;;;;;0.00;0.00;;;12.70;99.90;;;;;;5092797;28;20220;-59
2023/10/11 02:28:44;;;;;;;0.00;0.00;;;12.70;99.90;;;;;;5092251;28;20229;-60
2023/10/11 02:31:13;;;;;;;0.00;0.00;;;12.70;99.90;;;;;;5092185;28;20196;-59
2023/10/11 02:33:39;;;;;;;0.17;0.17;;;12.70;99.90;;;;;;5091621;28;20204;-59
2023/10/11 02:36:09;;;;;;;0.00;0.00;;;12.70;99.90;;;;;;5092692;28;20226;-59
2023/10/11 02:38:47;;;;;;;0.00;0.00;;;12.70;99.90;;;;;;5092080;28;20260;-59
2023/10/11 02:41:26;;;;;;;0.00;0.00;;;12.70;99.90;;;;;;5092457;28;20187;-60
2023/10/11 02:43:57;;;;;;;0.00;0.00;;;12.60;99.90;;;;;;5077840;28;20214;-59
2023/10/11 02:46:23;;;;;;;0.00;0.00;;;12.60;99.90;;;;;;5092365;28;20311;-60
2023/10/11 02:48:54;;;;;;;0.00;0.00;;;12.60;99.90;;;;;;5092216;28;20191;-59
2023/10/11 02:51:24;;;;;;;0.00;0.00;;;12.60;99.90;;;;;;5092335;28;20241;-59
2023/10/11 02:53:52;;;;;;;0.00;0.00;;;12.60;99.90;;;;;;5092210;28;20276;-59
2023/10/11 02:56:17;;;;;;;0.10;0.10;;;12.60;99.90;;;;;;5092458;28;20222;-59
2023/10/11 02:58:43;;;;;;;0.00;0.00;;;12.60;99.90;;;;;;5091555;28;20237;-59
2023/10/11 03:01:16;;;;;;;0.00;0.00;;;12.60;99.90;;;;;;5091568;28;20180;-59
2023/10/11 03:03:42;;;;;;;0.00;0.00;;;12.50;99.90;;;;;;5088634;28;20184;-59
2023/10/11 03:06:08;;;;;;;0.00;0.00;;;12.50;99.90;;;;;;5091624;28;20211;-59
2023/10/11 03:08:34;;;;;;;0.00;0.00;;;12.50;99.90;;;;;;5091289;28;20636;-59
2023/10/11 03:11:04;;;;;;;0.00;0.00;;;12.50;99.90;;;;;;5091780;28;20179;-59
2023/10/11 03:13:31;;;;;;;0.10;0.10;;;12.50;99.90;;;;;;5091378;28;20211;-59
2023/10/11 03:15:59;;;;;;;0.00;0.00;;;12.40;99.90;;;;;;5091236;28;20176;-59
2023/10/11 03:18:26;;;;;;;0.00;0.00;;;12.40;99.90;;;;;;5091604;28;20169;-59
2023/10/11 03:21:07;;;;;;;0.00;0.00;;;12.40;99.90;;;;;;5092051;28;20176;-59
2023/10/11 03:23:43;;;;;;;0.00;0.00;;;12.40;99.90;;;;;;5091100;28;20184;-61
2023/10/11 03:28:58;;;;;;;0.00;0.00;;;12.30;99.90;;;;;;5091609;28;20180;-60
2023/10/11 03:31:28;;;;;;;0.00;0.00;;;12.30;99.90;;;;;;5091503;28;20181;-61
2023/10/11 03:33:59;;;;;;;0.00;0.00;;;12.30;99.90;;;;;;5075936;28;20168;-60
2023/10/11 03:36:34;;;;;;;0.00;0.00;;;12.20;99.90;;;;;;5091530;28;20182;-57
2023/10/11 03:39:08;;;;;;;0.00;0.00;;;12.20;99.90;;;;;;5091576;28;20223;-59
2023/10/11 03:41:36;;;;;;;0.00;0.00;;;12.10;99.90;;;;;;5090963;28;20175;-59
2023/10/11 03:44:09;;;;;;;0.17;0.17;;;12.10;99.90;;;;;;5091248;28;20245;-59
2023/10/11 03:46:36;;;;;;;0.00;0.00;;;12.10;99.90;;;;;;5089561;28;20298;-59
2023/10/11 03:51:43;;;;;;;0.00;0.00;;;12.00;99.90;;;;;;5090835;28;20176;-60
2023/10/11 03:54:24;;;;;;;0.00;0.00;;;12.00;99.90;;;;;;5090580;28;20532;-59
2023/10/11 03:56:53;;;;;;;0.00;0.00;;;12.00;99.90;;;;;;5091291;28;20184;-61
2023/10/11 03:59:25;;;;;;;0.00;0.00;;;11.90;99.90;;;;;;5091425;28;20191;-58
2023/10/11 04:01:52;;;;;;;0.00;0.00;;;11.90;99.90;;;;;;5090697;28;20177;-60
2023/10/11 04:04:20;;;;;;;0.00;0.00;;;11.90;99.90;;;;;;5091200;28;20255;-59
2023/10/11 04:06:51;;;;;;;0.10;0.10;;;11.80;99.90;;;;;;5091161;28;20220;-60
2023/10/11 04:09:31;;;;;;;0.00;0.00;;;11.80;99.90;;;;;;5090920;28;20207;-59
2023/10/11 04:12:03;;;;;;;0.00;0.00;;;11.80;99.90;;;;;;5091253;28;20592;-60
2023/10/11 04:14:44;;;;;;;0.05;0.05;;;11.70;99.90;;;;;;5082017;28;20221;-60
2023/10/11 04:19:47;;;;;;;0.00;0.00;;;11.70;99.90;;;;;;5091377;28;20163;-59
2023/10/11 04:22:12;;;;;;;0.00;0.00;;;11.60;99.90;;;;;;5091523;28;20184;-59
2023/10/11 04:24:39;;;;;;;0.28;0.25;;;11.60;99.90;;;;;;5090782;28;20176;-59
2023/10/11 04:29:47;;;;;;;0.00;0.00;;;11.60;99.90;;;;;;5091379;28;20172;-61
2023/10/11 04:32:19;;;;;;;0.00;0.00;;;11.50;99.90;;;;;;5091116;28;20191;-59
2023/10/11 04:34:48;;;;;;;0.00;0.00;;;11.50;99.90;;;;;;5091869;28;20180;-59
2023/10/11 04:37:27;;;;;;;0.00;0.00;;;11.50;99.90;;;;;;5093533;28;20250;-59
2023/10/11 04:39:59;;;;;;;0.00;0.00;;;11.50;99.90;;;;;;5095345;28;20591;-60
2023/10/11 04:42:28;;;;;;;0.00;0.00;;;11.50;99.90;;;;;;5095450;28;20683;-60
2023/10/11 04:44:54;;;;;;;0.05;0.05;;;11.50;99.90;;;;;;5094917;28;20670;-58
2023/10/11 04:47:21;;;;;;;0.00;0.00;;;11.50;99.90;;;;;;5095278;28;20215;-60
2023/10/11 04:49:48;;;;;;;0.00;0.00;;;11.40;99.90;;;;;;5094993;28;20180;-59
2023/10/11 04:52:22;;;;;;;0.70;0.70;;;11.40;99.90;;;;;;5095277;28;20584;-59
2023/10/11 04:54:54;;;;;;;0.00;0.00;;;11.40;99.90;;;;;;5095187;28;20163;-59
2023/10/11 04:57:36;;;;;;;0.00;0.00;;;11.40;99.90;;;;;;5093945;28;20176;-60
2023/10/11 05:00:07;;;;;;;0.10;0.10;;;11.40;99.90;;;;;;5095205;28;20195;-59
2023/10/11 05:02:32;;;;;;;0.00;0.00;;;11.30;99.90;;;;;;5095206;28;20176;-60
2023/10/11 05:05:05;;;;;;;0.00;0.00;;;11.30;99.90;;;;;;5094929;28;20233;-60
2023/10/11 05:07:32;;;;;;;0.05;0.05;;;11.30;99.90;;;;;;5094764;28;20222;-62
2023/10/11 05:10:23;;;;;;;0.00;0.00;;;11.20;99.90;;;;;;5094875;28;20183;-59
2023/10/11 05:12:47;;;;;;;0.13;0.13;;;11.10;99.90;;;;;;5094373;28;20191;-59
2023/10/11 05:15:15;;;;;;;0.00;0.00;;;11.10;99.90;;;;;;5094835;28;20180;-59
2023/10/11 05:17:41;;;;;;;0.30;0.30;;;11.10;99.90;;;;;;5094646;28;20180;-59
2023/10/11 05:25:37;;;;;;;0.00;0.00;;;11.00;99.90;;;;;;5094538;28;20217;-59
2023/10/11 05:28:15;;;;;;;0.00;0.00;;;11.00;99.90;;;;;;5094432;28;20238;-60
2023/10/11 05:30:44;;;;;;;0.00;0.00;;;11.00;99.90;;;;;;5094420;28;20634;-59
2023/10/11 05:33:31;;;;;;;0.00;0.00;;;11.00;99.90;;;;;;5094485;28;20188;-59
2023/10/11 05:36:14;;;;;;;0.00;0.00;;;11.00;99.90;;;;;;5094416;28;20206;-59
2023/10/11 05:52:39;;;;;;;0.25;0.25;;;11.00;99.90;;;;;;5091840;28;20191;-60
2023/10/11 05:55:06;;;;;;;0.00;0.00;;;11.00;99.90;;;;;;5092952;28;20188;-61
2023/10/11 05:57:32;;;;;;;0.15;0.15;;;11.00;99.90;;;;;;5094008;28;20176;-61
2023/10/11 06:00:02;;;;;;;0.10;0.10;;;11.00;99.90;;;;;;5093891;28;20662;-59
2023/10/11 06:02:28;;;;;;;0.10;0.10;;;11.00;99.90;;;;;;5094018;28;20191;-60
2023/10/11 06:04:55;;;;;;;0.00;0.00;;;11.10;99.90;;;;;;5093944;28;20176;-59
2023/10/11 06:07:21;;;;;;;0.00;0.00;;;11.00;99.90;;;;;;5093838;28;20216;-59
2023/10/11 06:09:46;;;;;;;0.00;0.00;;;11.10;99.90;;;;;;5093701;28;20225;-59
2023/10/11 06:12:22;;;;;;;0.00;0.00;;;11.10;99.90;;;;;;5093875;28;20237;-59
2023/10/11 06:14:50;;;;;;;0.00;0.00;;;11.20;99.90;;;;;;5093643;28;20587;-58
2023/10/11 06:17:16;;;;;;;0.05;0.05;;;11.30;99.90;;;;;;5093652;28;20674;-59
2023/10/11 06:19:53;;;;;;;0.00;0.00;;;11.30;99.90;;;;;;5093520;28;20207;-59
2023/10/11 06:22:21;;;;;;;0.00;0.00;;;11.40;99.90;;;;;;5093666;28;20229;-59
2023/10/11 06:24:47;;;;;;;0.00;0.00;;;11.40;99.90;;;;;;5093452;28;20222;-59
2023/10/11 06:29:57;;;;;;;0.20;0.20;;;11.60;99.90;;;;;;5093582;28;20226;-59
2023/10/11 06:32:24;;;;;;;0.00;0.00;;;11.70;99.90;;;;;;5093280;28;20634;-60
2023/10/11 06:34:51;;;;;;;0.28;0.10;;;11.70;99.90;;;;;;5093418;28;20180;-59
2023/10/11 06:37:24;;;;;;;0.00;0.00;;;11.80;99.90;;;;;;5093285;28;20290;-59
2023/10/11 06:44:47;;;;;;;0.00;0.00;;;12.20;99.90;;;;;;5093238;28;20628;-59
2023/10/11 06:47:13;;;;;;;0.00;0.00;;;12.40;99.90;;;;;;5093003;28;20667;-59
2023/10/11 06:49:44;;;;;;;0.00;0.00;;;12.60;99.90;;;;;;5092954;28;20673;-59
2023/10/11 06:52:17;;;;;;;0.20;0.20;;;13.00;99.90;;;;;;5093125;28;20229;-60
2023/10/11 06:55:07;;;;;;;0.00;0.00;;;13.40;99.90;;;;;;5093294;28;20602;-59
2023/10/11 06:57:33;;;;;;;0.10;0.10;;;13.90;99.90;;;;;;5094452;28;20184;-59
2023/10/11 07:00:24;;;;;;;0.00;0.00;;;14.40;99.90;;;;;;5093630;28;20187;-60
2023/10/11 07:02:52;;;;;;;0.00;0.00;;;14.80;99.90;;;;;;5094438;28;20198;-60
2023/10/11 07:05:25;;;;;;;0.03;0.03;;;15.40;99.90;;;;;;5093470;28;20184;-60
2023/10/11 07:07:52;;;;;;;0.00;0.00;;;15.80;99.90;;;;;;5092904;28;20593;-61
2023/10/11 07:10:33;;;;;;;0.17;0.17;;;16.20;99.90;;;;;;5093178;28;20183;-60
2023/10/11 07:13:04;;;;;;;0.00;0.00;;;16.60;99.90;;;;;;5091746;28;20176;-60
2023/10/11 07:15:37;;;;;;;0.00;0.00;;;17.00;99.90;;;;;;5092900;28;20587;-60
2023/10/11 07:18:08;;;;;;;0.00;0.00;;;17.40;99.90;;;;;;5092754;28;20180;-60
2023/10/11 07:23:22;;;;;;;0.00;0.00;;;18.00;99.90;;;;;;5092858;28;20186;-60
2023/10/11 07:25:49;;;;;;;0.00;0.00;;;18.30;99.90;;;;;;5092348;28;20249;-60
2023/10/11 07:28:26;;;;;;;0.08;0.08;;;18.50;99.90;;;;;;5092246;28;20180;-60
2023/10/11 07:30:52;;;;;;;0.00;0.00;;;18.70;99.90;;;;;;5092126;28;20184;-60
2023/10/11 07:33:18;;;;;;;0.32;0.32;;;18.90;99.90;;;;;;5092271;28;20245;-60
2023/10/11 07:35:46;;;;;;;0.00;0.00;;;19.20;99.70;;;;;;5092213;28;20266;-60
2023/10/11 07:38:14;;;;;;;0.00;0.00;;;19.40;99.60;;;;;;5091782;28;20230;-60
2023/10/11 07:40:46;;;;;;;0.00;0.00;;;19.60;99.30;;;;;;5092141;28;20229;-60
2023/10/11 07:43:16;;;;;;;0.00;0.00;;;19.90;99.20;;;;;;5091968;28;20184;-59
2023/10/11 07:45:48;;;;;;;0.00;0.00;;;20.30;98.20;;;;;;5092039;28;20290;-59
2023/10/11 07:48:17;;;;;;;0.00;0.00;;;20.60;97.90;;;;;;5092010;28;20279;-59
2023/10/11 07:50:46;;;;;;;0.00;0.00;;;20.80;97.30;;;;;;5091863;28;20184;-59
2023/10/11 07:53:13;;;;;;;0.00;0.00;;;21.10;96.90;;;;;;5091896;28;20198;-59
2023/10/11 07:55:40;;;;;;;0.10;0.00;;;21.30;96.20;;;;;;5092022;28;20681;-59
2023/10/11 07:58:08;;;;;;;0.00;0.00;;;21.60;96.10;;;;;;5091900;28;20182;-59
2023/10/11 08:00:40;;;;;;;0.00;0.00;;;21.70;95.90;;;;;;5091666;28;20179;-59
2023/10/11 08:03:06;;;;;;;0.00;0.00;;;21.80;95.50;;;;;;5091928;28;20535;-60
2023/10/11 08:05:45;;;;;;;0.00;0.00;;;22.00;95.30;;;;;;5091572;28;20168;-60
2023/10/11 08:08:13;;;;;;;0.00;0.00;;;22.10;94.70;;;;;;5091827;28;20211;-60
2023/10/11 08:10:44;;;;;;;0.15;0.15;;;22.20;94.70;;;;;;5091607;28;20568;-60
2023/10/11 08:13:26;;;;;;;0.00;0.00;;;22.20;94.60;;;;;;5091765;28;20295;-60
2023/10/11 08:15:58;;;;;;;0.20;0.20;;;22.40;94.50;;;;;;5091450;28;20183;-60
2023/10/11 08:18:24;;;;;;;0.00;0.00;;;22.60;93.30;;;;;;5091732;28;20202;-60
2023/10/11 08:20:50;;;;;;;0.00;0.00;;;22.70;92.80;;;;;;5091483;28;20213;-60
2023/10/11 08:23:28;;;;;;;0.00;0.00;;;22.80;92.00;;;;;;5091580;28;20172;-60
2023/10/11 08:25:57;;;;;;;0.15;0.15;;;22.90;91.80;;;;;;5091482;28;20199;-60
2023/10/11 08:28:34;;;;;;;0.00;0.00;;;23.10;91.60;;;;;;5091477;28;20183;-60
2023/10/11 08:30:59;;;;;;;0.00;0.00;;;23.30;91.60;;;;;;5091527;28;20179;-60
2023/10/11 08:33:25;;;;;;;0.00;0.00;;;23.40;90.70;;;;;;5091526;28;20674;-60
2023/10/11 08:35:55;;;;;;;0.00;0.00;;;23.40;90.50;;;;;;5091437;28;20207;-60
2023/10/11 08:38:24;;;;;;;0.00;0.00;;;23.50;90.70;;;;;;5091133;28;20243;-60
2023/10/11 08:40:50;;;;;;;0.73;0.45;;;23.50;91.00;;;;;;5091265;28;20184;-60
2023/10/11 08:43:16;;;;;;;0.95;0.95;;;23.60;91.00;;;;;;5091189;28;20794;-60
2023/10/11 08:46:00;;;;;;;0.00;0.00;;;23.60;90.90;;;;;;5091160;28;20204;-60
2023/10/11 08:48:27;;;;;;;0.00;0.00;;;23.60;91.20;;;;;;5091294;28;20371;-60
2023/10/11 08:50:55;;;;;;;0.10;0.05;;;23.80;90.70;;;;;;5091248;28;20180;-60
2023/10/11 08:53:22;;;;;;;0.43;0.43;;;23.80;90.60;;;;;;5091259;28;20661;-60
2023/10/11 08:55:56;;;;;;;0.00;0.00;;;23.90;90.80;;;;;;5091185;28;20242;-60
2023/10/11 08:58:29;;;;;;;0.00;0.00;;;24.10;90.10;;;;;;5091220;28;20179;-60
2023/10/11 09:00:59;;;;;;;0.00;0.00;;;24.10;89.00;;;;;;5091234;28;20180;-60
2023/10/11 09:03:26;;;;;;;0.03;0.03;;;24.10;90.10;;;;;;5091089;28;20173;-60
2023/10/11 09:05:58;;;;;;;0.00;0.00;;;24.10;89.20;;;;;;5091055;28;20222;-60
2023/10/11 09:08:32;;;;;;;0.82;0.80;;;24.20;90.00;;;;;;5091304;28;20176;-60
2023/10/11 09:11:50;;;;;;;0.00;0.00;;;24.10;90.00;;;;;;5091290;28;20247;-59
2023/10/11 09:14:28;;;;;;;0.00;0.00;;;24.10;90.30;;;;;;5090414;28;20687;-59
2023/10/11 09:16:57;;;;;;;0.00;0.00;;;24.10;89.80;;;;;;5082684;28;20552;-59
2023/10/11 09:19:26;;;;;;;0.00;0.00;;;24.10;89.70;;;;;;5090944;28;20176;-60
2023/10/11 09:22:18;;;;;;;0.00;0.00;;;24.00;88.70;;;;;;5091025;28;20271;-60
2023/10/11 09:24:44;;;;;;;0.00;0.00;;;24.00;89.60;;;;;;5094728;28;20172;-60
2023/10/11 09:29:43;;;;;;;0.00;0.00;;;24.20;90.50;;;;;;5094666;28;20168;-60
2023/10/11 09:32:09;;;;;;;0.00;0.00;;;24.20;88.50;;;;;;5094512;28;20683;-59
2023/10/11 09:34:41;;;;;;;0.00;0.00;;;24.30;87.40;;;;;;5094491;28;20180;-60
2023/10/11 09:37:11;;;;;;;0.00;0.00;;;24.50;86.40;;;;;;5094610;28;20177;-60
2023/10/11 09:39:40;;;;;;;0.00;0.00;;;24.50;83.90;;;;;;5094323;28;20224;-60
2023/10/11 09:42:11;;;;;;;0.00;0.00;;;24.50;85.90;;;;;;5094495;28;20180;-60
2023/10/11 09:44:40;;;;;;;0.05;0.03;;;24.70;88.00;;;;;;5094378;28;20182;-59
2023/10/11 09:47:16;;;;;;;0.00;0.00;;;24.90;86.30;;;;;;5094187;28;20658;-59
2023/10/11 09:49:42;;;;;;;0.00;0.00;;;25.00;86.40;;;;;;5094223;28;20251;-59
2023/10/11 09:52:15;;;;;;;0.00;0.00;;;25.10;85.30;;;;;;5094088;28;20639;-59
2023/10/11 09:54:41;;;;;;;0.10;0.10;;;25.20;84.90;;;;;;5094039;28;20188;-59
2023/10/11 09:57:21;;;;;;;0.00;0.00;;;25.30;84.70;;;;;;5094059;28;20176;-59
2023/10/11 09:59:59;;;;;;;0.00;0.00;;;25.50;83.70;;;;;;5093945;28;20184;-59
2023/10/11 10:02:37;;;;;;;0.85;0.10;;;25.70;85.50;;;;;;5093961;28;20164;-59
2023/10/11 10:05:05;;;;;;;0.00;0.00;;;25.90;85.70;;;;;;5093900;28;20654;-59
2023/10/11 10:07:45;;;;;;;0.00;0.00;;;26.00;85.80;;;;;;5093592;28;20246;-60
2023/10/11 10:10:13;;;;;;;0.10;0.10;;;25.90;84.10;;;;;;5093768;28;20643;-59
2023/10/11 10:12:55;;;;;;;0.00;0.00;;;26.00;84.90;;;;;;5093689;28;20188;-58
2023/10/11 10:15:23;;;;;;;0.00;0.00;;;26.20;84.00;;;;;;5093862;28;20271;-60
2023/10/11 10:18:00;;;;;;;0.00;0.00;;;26.30;83.30;;;;;;5093683;28;20175;-59
2023/10/11 10:20:34;;;;;;;0.00;0.00;;;26.30;80.70;;;;;;5093548;28;20199;-59
2023/10/11 10:23:15;;;;;;;0.00;0.00;;;26.30;79.60;;;;;;5093604;28;20643;-59
2023/10/11 10:25:47;;;;;;;0.00;0.00;;;26.40;80.30;;;;;;5093467;28;20647;-60
2023/10/11 10:28:45;;;;;;;0.00;0.00;;;26.50;79.00;;;;;;5093449;28;20224;-59
2023/10/11 10:31:11;;;;;;;0.00;0.00;;;26.60;78.50;;;;;;5093556;28;20191;-59
2023/10/11 10:33:41;;;;;;;0.00;0.00;;;26.70;76.40;;;;;;5092725;28;20204;-60
2023/10/11 10:36:19;;;;;;;0.00;0.00;;;26.60;76.50;;;;;;5092990;28;20208;-60
2023/10/11 10:41:39;;;;;;;0.10;0.10;;;26.60;77.40;;;;;;5093158;28;20222;-59
2023/10/11 10:44:06;;;;;;;0.00;0.00;;;26.50;77.20;;;;;;5093172;28;20655;-59
2023/10/11 10:46:33;;;;;;;0.00;0.00;;;26.60;78.50;;;;;;5092802;28;20219;-60
2023/10/11 10:49:01;;;;;;;0.00;0.00;;;26.70;76.80;;;;;;5093158;28;20172;-60
2023/10/11 10:51:36;;;;;;;0.80;0.80;;;26.80;76.40;;;;;;5092960;28;20191;-60
2023/10/11 10:54:17;;;;;;;0.00;0.00;;;26.70;71.50;;;;;;5093123;28;20204;-60
2023/10/11 10:56:47;;;;;;;0.00;0.00;;;26.50;70.70;;;;;;5092964;28;20183;-60
2023/10/11 10:59:14;;;;;;;0.00;0.00;;;26.40;70.40;;;;;;5092746;28;20757;-60
2023/10/11 11:01:47;;;;;;;0.00;0.00;;;26.40;70.60;;;;;;5092889;28;20203;-60
2023/10/11 11:04:15;;;;;;;0.00;0.00;;;26.30;70.60;;;;;;5092755;28;20232;-60
2023/10/11 11:06:46;;;;;;;0.00;0.00;;;26.50;71.50;;;;;;5092661;28;20214;-60
2023/10/11 11:09:19;;;;;;;0.10;0.10;;;26.60;70.40;;;;;;5092709;28;20190;-60
2023/10/11 11:11:46;;;;;;;0.00;0.00;;;26.70;70.90;;;;;;5092625;28;20211;-60
2023/10/11 11:14:14;;;;;;;0.00;0.00;;;26.70;70.20;;;;;;5092533;28;20253;-60
2023/10/11 11:16:43;;;;;;;0.00;0.00;;;26.80;70.90;;;;;;5092507;28;20306;-60
2023/10/11 11:19:19;;;;;;;0.00;0.00;;;26.80;69.90;;;;;;5092616;28;20187;-60
2023/10/11 11:21:46;;;;;;;0.00;0.00;;;26.70;69.90;;;;;;5092484;28;20175;-60
2023/10/11 11:24:27;;;;;;;0.00;0.00;;;26.60;70.80;;;;;;5092467;28;20554;-60
2023/10/11 11:26:54;;;;;;;0.00;0.00;;;26.60;71.00;;;;;;5092210;28;20219;-60
2023/10/11 11:29:32;;;;;;;0.00;0.00;;;26.90;72.00;;;;;;5092465;28;20168;-60
2023/10/11 11:31:59;;;;;;;0.00;0.00;;;27.00;71.20;;;;;;5092322;28;20180;-60
2023/10/11 11:34:34;;;;;;;0.10;0.10;;;27.10;70.80;;;;;;5092167;28;20550;-60
2023/10/11 11:37:08;;;;;;;0.00;0.00;;;27.10;69.90;;;;;;5092230;28;20186;-59
2023/10/11 11:39:39;;;;;;;0.00;0.00;;;27.20;70.80;;;;;;5091872;28;20298;-59
2023/10/11 11:42:24;;;;;;;0.00;0.00;;;27.10;69.80;;;;;;5092256;28;20180;-61
2023/10/11 11:44:51;;;;;;;0.10;0.10;;;26.80;69.80;;;;;;5092025;28;20168;-60
2023/10/11 11:47:22;;;;;;;0.00;0.00;;;26.70;70.90;;;;;;5091927;28;20218;-60
2023/10/11 11:49:48;;;;;;;0.00;0.00;;;26.70;71.90;;;;;;5092009;28;20168;-60
2023/10/11 11:52:16;;;;;;;0.00;0.00;;;26.70;70.80;;;;;;5091908;28;20230;-60
2023/10/11 11:54:43;;;;;;;0.00;0.00;;;26.60;70.90;;;;;;5091771;28;20184;-60
2023/10/11 11:57:09;;;;;;;0.00;0.00;;;26.60;71.90;;;;;;5091941;28;20184;-60
2023/10/11 11:59:35;;;;;;;0.10;0.10;;;26.60;72.30;;;;;;5091656;28;20174;-60
2023/10/11 12:02:00;;;;;;;0.00;0.00;;;26.70;72.70;;;;;;5091985;28;20270;-60
2023/10/11 12:04:30;;;;;;;0.00;0.00;;;26.80;71.80;;;;;;5091826;28;20633;-60
2023/10/11 12:07:00;;;;;;;0.00;0.00;;;26.90;71.50;;;;;;5091686;28;20239;-60
2023/10/11 12:09:32;;;;;;;0.00;0.00;;;26.90;71.00;;;;;;5091780;28;20204;-61
2023/10/11 12:12:03;;;;;;;0.00;0.00;;;26.70;70.10;;;;;;5091714;28;20640;-60
2023/10/11 12:14:29;;;;;;;0.00;0.00;;;26.60;71.30;;;;;;5091701;28;20207;-61
2023/10/11 12:16:55;;;;;;;0.00;0.00;;;26.70;71.60;;;;;;5092647;28;20658;-60
2023/10/11 12:19:21;;;;;;;0.10;0.10;;;26.80;71.00;;;;;;5092970;28;20180;-61
2023/10/11 12:21:47;;;;;;;0.00;0.00;;;26.90;71.40;;;;;;5092959;28;20215;-60
2023/10/11 12:24:12;;;;;;;0.00;0.00;;;26.80;71.30;;;;;;5091972;28;20176;-60
2023/10/11 12:26:42;;;;;;;0.00;0.00;;;26.80;71.00;;;;;;5091401;28;20223;-61
2023/10/11 12:29:14;;;;;;;0.00;0.00;;;26.90;71.50;;;;;;5091925;28;20191;-61
2023/10/11 12:31:40;;;;;;;0.00;0.00;;;26.90;70.30;;;;;;5092080;28;20168;-60
2023/10/11 12:34:09;;;;;;;0.20;0.20;;;26.90;70.50;;;;;;5092531;28;20172;-60
2023/10/11 12:36:42;;;;;;;0.00;0.00;;;26.90;70.10;;;;;;5091771;28;20726;-61
2023/10/11 12:39:20;;;;;;;0.25;0.25;;;26.80;70.20;;;;;;5091432;28;20254;-61
2023/10/11 12:41:54;;;;;;;0.00;0.00;;;26.80;70.80;;;;;;5091401;28;20573;-60
2023/10/11 12:44:20;;;;;;;0.00;0.00;;;26.70;69.80;;;;;;5091546;28;20187;-60
2023/10/11 12:46:51;;;;;;;0.00;0.00;;;26.60;69.90;;;;;;5091344;28;20207;-61
2023/10/11 12:49:17;;;;;;;2.55;0.68;;;26.70;70.60;;;;;;5091425;28;20670;-59
2023/10/11 12:51:44;;;;;;;0.00;0.00;;;26.70;69.00;;;;;;5091295;28;20181;-59
2023/10/11 12:54:14;;;;;;;0.00;0.00;;;26.70;68.80;;;;;;5091271;28;20184;-59
2023/10/11 12:56:43;;;;;;;0.00;0.00;;;26.60;69.30;;;;;;5091242;28;20188;-60
2023/10/11 12:59:16;;;;;;;0.00;0.00;;;26.40;67.90;;;;;;5094929;28;20172;-60
2023/10/11 13:01:50;;;;;;;0.00;0.00;;;26.30;69.00;;;;;;5095170;28;20547;-60
2023/10/11 13:04:23;;;;;;;0.15;0.15;;;26.40;69.40;;;;;;5095064;28;20171;-60
2023/10/11 13:06:50;;;;;;;0.00;0.00;;;26.40;69.80;;;;;;5094981;28;20670;-60
2023/10/11 13:09:21;;;;;;;0.00;0.00;;;26.40;69.50;;;;;;5093854;28;20217;-59
2023/10/11 13:11:47;;;;;;;1.65;0.75;;;26.40;70.10;;;;;;5094991;28;20174;-60
2023/10/11 13:14:20;;;;;;;0.00;0.00;;;26.40;70.00;;;;;;5094955;28;20506;-60
2023/10/11 13:16:48;;;;;;;0.10;0.10;;;26.50;70.20;;;;;;5094919;28;20176;-60
2023/10/11 13:19:17;;;;;;;0.00;0.00;;;26.50;70.00;;;;;;5094881;28;20160;-60
2023/10/11 13:21:49;;;;;;;0.00;0.00;;;26.50;71.00;;;;;;5094770;28;20176;-60
2023/10/11 13:24:22;;;;;;;0.00;0.00;;;26.40;69.50;;;;;;5094825;28;20175;-59
2023/10/11 13:26:49;;;;;;;0.00;0.00;;;26.40;69.80;;;;;;5094615;28;20216;-59
2023/10/11 13:29:18;;;;;;;0.00;0.00;;;26.50;70.40;;;;;;5094629;28;20168;-60
2023/10/11 13:31:53;;;;;;;0.00;0.00;;;26.50;70.70;;;;;;5094533;28;20203;-60
2023/10/11 13:34:19;;;;;;;0.00;0.00;;;26.60;70.80;;;;;;5094646;28;20179;-59
2023/10/11 13:36:45;;;;;;;0.00;0.00;;;26.60;69.50;;;;;;5094426;28;20203;-59
2023/10/11 13:39:25;;;;;;;0.00;0.00;;;26.60;69.50;;;;;;5094378;28;20262;-60
2023/10/11 13:41:56;;;;;;;0.13;0.13;;;26.50;69.30;;;;;;5094319;28;20253;-60
2023/10/11 13:44:22;;;;;;;0.00;0.00;;;26.30;68.10;;;;;;5094378;28;20191;-60
2023/10/11 13:46:51;;;;;;;0.00;0.00;;;26.20;68.00;;;;;;5094055;28;20697;-59
2023/10/11 13:49:24;;;;;;;0.00;0.00;;;26.10;68.60;;;;;;5094235;28;20180;-59
2023/10/11 13:51:54;;;;;;;0.00;0.00;;;26.10;69.50;;;;;;5094165;28;20207;-59
2023/10/11 13:54:31;;;;;;;0.00;0.00;;;26.10;69.40;;;;;;5094163;28;20240;-60